createdAt,value
2018-10-01T00:02:18.999Z,2.93
2018-10-01T00:04:47.471Z,2.60
2018-10-01T00:07:15.979Z,3.07
2018-10-01T00:09:44.473Z,2.97
2018-10-01T00:12:13.048Z,3.10
2018-10-01T00:14:41.518Z,3.07
2018-10-01T00:17:09.999Z,2.70
2018-10-01T00:19:43.666Z,3.30
2018-10-01T00:22:17.440Z,3.00
2018-10-01T00:24:45.924Z,2.83
2018-10-01T00:27:14.399Z,2.83
2018-10-01T00:29:42.885Z,3.00
2018-10-01T00:32:11.358Z,2.87
2018-10-01T00:34:39.836Z,2.83
2018-10-01T00:37:08.335Z,3.10
2018-10-01T00:39:36.914Z,3.27
2018-10-01T00:42:05.388Z,3.20
2018-10-01T00:44:33.907Z,2.97
2018-10-01T00:47:02.411Z,2.90
2018-10-01T00:49:30.901Z,3.07
2018-10-01T00:51:59.378Z,3.00
2018-10-01T00:54:27.868Z,2.90
2018-10-01T00:56:57.059Z,3.00
2018-10-01T00:59:25.536Z,3.10
2018-10-01T01:01:54.063Z,3.20
2018-10-01T01:04:22.551Z,3.00
2018-10-01T01:06:51.993Z,3.07
2018-10-01T01:09:20.474Z,2.70
2018-10-01T01:11:48.935Z,3.03
2018-10-01T01:14:17.411Z,3.07
2018-10-01T01:16:45.887Z,3.00
2018-10-01T01:19:14.359Z,3.00
2018-10-01T01:21:42.870Z,2.93
2018-10-01T01:24:11.343Z,3.13
2018-10-01T01:26:39.812Z,3.20
2018-10-01T01:29:08.283Z,3.13
2018-10-01T01:31:36.752Z,3.00
2018-10-01T01:34:05.242Z,3.10
2018-10-01T01:36:33.734Z,2.73
2018-10-01T01:39:02.242Z,3.20
2018-10-01T01:41:30.719Z,2.90
2018-10-01T01:43:59.190Z,3.07
2018-10-01T01:46:27.653Z,3.20
2018-10-01T01:48:56.141Z,3.23
2018-10-01T01:51:24.591Z,3.13
2018-10-01T01:53:53.087Z,2.90
2018-10-01T01:56:21.551Z,3.30
2018-10-01T01:58:50.016Z,3.13
2018-10-01T02:01:18.503Z,2.90
2018-10-01T02:03:46.982Z,3.13
2018-10-01T02:06:15.446Z,3.30
2018-10-01T02:08:43.920Z,3.00
2018-10-01T02:11:12.400Z,3.10
2018-10-01T02:13:40.864Z,3.27
2018-10-01T02:16:09.340Z,3.20
2018-10-01T02:18:37.850Z,3.30
2018-10-01T02:21:06.315Z,3.50
2018-10-01T02:23:34.781Z,3.10
2018-10-01T02:26:03.248Z,3.50
2018-10-01T02:28:31.731Z,3.13
2018-10-01T02:31:00.194Z,3.30
2018-10-01T02:33:28.672Z,2.90
2018-10-01T02:35:57.166Z,3.20
2018-10-01T02:38:25.702Z,3.00
2018-10-01T02:40:54.208Z,3.27
2018-10-01T02:43:22.680Z,3.30
2018-10-01T02:45:51.381Z,3.03
2018-10-01T02:48:19.861Z,3.10
2018-10-01T02:50:48.331Z,3.30
2018-10-01T02:53:21.958Z,3.00
2018-10-01T02:55:50.419Z,3.17
2018-10-01T02:58:18.921Z,2.97
2018-10-01T03:00:47.383Z,2.97
2018-10-01T03:03:15.851Z,3.60
2018-10-01T03:05:44.314Z,3.03
2018-10-01T03:08:12.778Z,3.30
2018-10-01T03:10:41.263Z,3.07
2018-10-01T03:13:09.779Z,3.10
2018-10-01T03:15:38.256Z,3.40
2018-10-01T03:18:07.375Z,3.43
2018-10-01T03:20:35.846Z,3.33
2018-10-01T03:23:04.421Z,3.13
2018-10-01T03:25:32.971Z,3.37
2018-10-01T03:28:01.499Z,3.40
2018-10-01T03:30:29.983Z,2.90
2018-10-01T03:32:58.463Z,3.37
2018-10-01T03:35:26.940Z,2.93
2018-10-01T03:37:55.458Z,3.10
2018-10-01T03:40:23.952Z,3.00
2018-10-01T03:42:52.423Z,3.07
2018-10-01T03:45:20.920Z,3.10
2018-10-01T03:47:49.387Z,3.13
2018-10-01T03:50:17.854Z,3.10
2018-10-01T03:52:46.327Z,3.43
2018-10-01T03:55:14.832Z,3.70
2018-10-01T03:57:43.312Z,3.33
2018-10-01T04:00:11.791Z,3.13
2018-10-01T04:02:40.273Z,3.53
2018-10-01T04:05:08.738Z,3.30
2018-10-01T04:07:37.204Z,3.47
2018-10-01T04:10:05.722Z,3.50
2018-10-01T04:12:34.228Z,3.50
2018-10-01T04:15:02.758Z,3.27
2018-10-01T04:17:31.222Z,3.50
2018-10-01T04:19:59.679Z,3.60
2018-10-01T04:22:35.223Z,3.27
2018-10-01T04:25:03.748Z,3.40
2018-10-01T04:27:32.247Z,2.97
2018-10-01T04:30:00.718Z,3.10
2018-10-01T04:32:29.266Z,3.40
2018-10-01T04:34:57.802Z,3.47
2018-10-01T04:37:26.290Z,3.20
2018-10-01T04:39:54.768Z,3.20
2018-10-01T04:42:23.240Z,3.00
2018-10-01T04:44:51.746Z,3.43
2018-10-01T04:47:20.218Z,3.53
2018-10-01T04:49:48.690Z,3.40
2018-10-01T04:52:17.172Z,3.63
2018-10-01T04:54:45.643Z,3.60
2018-10-01T04:57:14.227Z,3.27
2018-10-01T04:59:42.695Z,3.63
2018-10-01T05:02:11.232Z,3.73
2018-10-01T05:04:39.709Z,3.67
2018-10-01T05:07:08.198Z,3.70
2018-10-01T05:09:36.679Z,3.63
2018-10-01T05:12:05.159Z,3.50
2018-10-01T05:14:33.625Z,3.60
2018-10-01T05:17:02.126Z,3.80
2018-10-01T05:19:30.599Z,3.70
2018-10-01T05:21:59.079Z,3.63
2018-10-01T05:24:27.552Z,3.87
2018-10-01T05:26:56.290Z,3.63
2018-10-01T05:29:24.739Z,3.83
2018-10-01T05:31:53.214Z,3.57
2018-10-01T05:34:21.682Z,3.67
2018-10-01T05:36:50.395Z,3.77
2018-10-01T05:39:18.869Z,3.90
2018-10-01T05:41:47.358Z,3.93
2018-10-01T05:44:15.870Z,3.60
2018-10-01T05:46:44.350Z,3.90
2018-10-01T05:49:12.868Z,3.93
2018-10-01T05:51:41.339Z,3.70
2018-10-01T05:54:09.841Z,3.73
2018-10-01T05:56:38.322Z,3.83
2018-10-01T05:59:07.307Z,3.70
2018-10-01T06:01:35.821Z,3.77
2018-10-01T06:04:04.321Z,3.73
2018-10-01T06:06:32.812Z,3.60
2018-10-01T06:09:01.308Z,4.00
2018-10-01T06:11:29.793Z,3.70
2018-10-01T06:13:58.303Z,3.70
2018-10-01T06:16:26.780Z,4.00
2018-10-01T06:18:55.267Z,3.93
2018-10-01T06:21:23.741Z,3.70
2018-10-01T06:23:52.222Z,3.40
2018-10-01T06:26:20.795Z,3.63
2018-10-01T06:28:49.280Z,3.33
2018-10-01T06:31:17.804Z,3.97
2018-10-01T06:33:46.315Z,3.70
2018-10-01T06:36:14.899Z,3.67
2018-10-01T06:38:43.400Z,3.90
2018-10-01T06:41:11.879Z,3.60
2018-10-01T06:43:40.368Z,4.00
2018-10-01T06:46:08.840Z,4.10
2018-10-01T06:48:37.322Z,3.97
2018-10-01T06:51:05.886Z,3.53
2018-10-01T06:53:34.435Z,3.97
2018-10-01T06:56:02.893Z,4.00
2018-10-01T06:58:31.379Z,3.73
2018-10-01T07:00:59.995Z,3.93
2018-10-01T07:03:28.464Z,3.77
2018-10-01T07:05:57.010Z,3.63
2018-10-01T07:08:25.511Z,4.07
2018-10-01T07:10:54.024Z,3.60
2018-10-01T07:13:22.520Z,3.90
2018-10-01T07:15:51.313Z,3.93
2018-10-01T07:18:19.797Z,4.17
2018-10-01T07:20:48.307Z,3.73
2018-10-01T07:23:16.928Z,3.70
2018-10-01T07:25:45.318Z,3.87
2018-10-01T07:28:13.920Z,3.77
2018-10-01T07:30:42.436Z,3.63
2018-10-01T07:33:11.051Z,3.70
2018-10-01T07:35:39.568Z,3.53
2018-10-01T07:38:08.040Z,4.07
2018-10-01T07:40:36.641Z,3.80
2018-10-01T07:43:05.150Z,3.53
2018-10-01T07:45:33.725Z,4.23
2018-10-01T07:48:02.237Z,3.90
2018-10-01T07:50:30.744Z,4.07
2018-10-01T07:52:59.233Z,3.70
2018-10-01T07:55:27.799Z,3.67
2018-10-01T07:57:56.280Z,3.53
2018-10-01T08:00:24.848Z,3.87
2018-10-01T08:02:53.301Z,3.67
2018-10-01T08:05:21.775Z,3.80
2018-10-01T08:07:50.256Z,3.87
2018-10-01T08:10:18.731Z,3.87
2018-10-01T08:12:47.207Z,3.40
2018-10-01T08:15:15.708Z,3.80
2018-10-01T08:17:44.206Z,4.00
2018-10-01T08:20:12.706Z,3.80
2018-10-01T08:22:41.176Z,3.83
2018-10-01T08:25:09.654Z,3.70
2018-10-01T08:27:38.140Z,3.50
2018-10-01T08:30:06.651Z,3.47
2018-10-01T08:32:35.201Z,3.77
2018-10-01T08:35:03.740Z,3.47
2018-10-01T08:37:32.184Z,3.73
2018-10-01T08:40:00.676Z,3.67
2018-10-01T08:42:29.199Z,3.53
2018-10-01T08:44:57.680Z,3.70
2018-10-01T08:47:26.230Z,3.40
2018-10-01T08:49:59.902Z,3.50
2018-10-01T08:52:32.334Z,3.50
2018-10-01T08:55:00.872Z,3.63
2018-10-01T08:57:29.410Z,3.63
2018-10-01T08:59:57.896Z,3.90
2018-10-01T09:02:26.450Z,3.60
2018-10-01T09:04:54.896Z,3.87
2018-10-01T09:07:23.415Z,3.50
2018-10-01T09:09:51.903Z,3.57
2018-10-01T09:12:20.388Z,3.70
2018-10-01T09:14:48.901Z,3.30
2018-10-01T09:17:17.420Z,3.40
2018-10-01T09:19:45.927Z,3.50
2018-10-01T09:22:14.420Z,3.60
2018-10-01T09:24:43.044Z,3.20
2018-10-01T09:27:11.550Z,3.93
2018-10-01T09:29:40.088Z,3.73
2018-10-01T09:32:09.472Z,3.60
2018-10-01T09:34:37.973Z,3.63
2018-10-01T09:37:06.501Z,4.13
2018-10-01T09:39:34.995Z,3.47
2018-10-01T09:42:03.528Z,3.53
2018-10-01T09:44:32.032Z,3.53
2018-10-01T09:47:00.510Z,3.00
2018-10-01T09:49:29.012Z,3.20
2018-10-01T09:51:57.544Z,3.17
2018-10-01T09:54:26.049Z,3.67
2018-10-01T09:56:54.557Z,3.43
2018-10-01T09:59:23.044Z,3.60
2018-10-01T10:01:51.533Z,3.33
2018-10-01T10:04:20.034Z,3.37
2018-10-01T10:06:48.554Z,3.37
2018-10-01T10:09:17.075Z,3.10
2018-10-01T10:11:45.558Z,3.53
2018-10-01T10:14:14.132Z,3.50
2018-10-01T10:16:42.635Z,3.50
2018-10-01T10:19:11.096Z,3.07
2018-10-01T10:21:39.604Z,3.33
2018-10-01T10:24:08.132Z,3.27
2018-10-01T10:26:36.705Z,3.30
2018-10-01T10:29:05.135Z,3.43
2018-10-01T10:31:33.621Z,3.30
2018-10-01T10:34:02.154Z,3.10
2018-10-01T10:36:30.627Z,3.50
2018-10-01T10:38:59.101Z,3.57
2018-10-01T10:41:27.699Z,3.40
2018-10-01T10:43:56.170Z,3.20
2018-10-01T10:46:24.668Z,3.80
2018-10-01T10:48:53.139Z,3.40
2018-10-01T10:51:21.643Z,3.20
2018-10-01T10:53:50.121Z,3.60
2018-10-01T10:56:18.652Z,3.40
2018-10-01T10:58:47.118Z,3.20
2018-10-01T11:01:15.614Z,3.00
2018-10-01T11:03:44.096Z,3.20
2018-10-01T11:06:12.576Z,3.30
2018-10-01T11:08:41.144Z,3.20
2018-10-01T11:11:09.591Z,3.20
2018-10-01T11:13:38.083Z,3.33
2018-10-01T11:16:06.606Z,3.30
2018-10-01T11:18:35.241Z,3.33
2018-10-01T11:21:03.626Z,3.10
2018-10-01T11:23:32.124Z,3.13
2018-10-01T11:26:00.601Z,3.27
2018-10-01T11:28:29.079Z,3.33
2018-10-01T11:30:57.567Z,3.07
2018-10-01T11:33:26.209Z,3.27
2018-10-01T11:35:54.587Z,3.17
2018-10-01T11:38:23.084Z,3.20
2018-10-01T11:40:51.563Z,3.23
2018-10-01T11:43:20.077Z,2.70
2018-10-01T11:45:48.644Z,3.20
2018-10-01T11:48:17.097Z,3.30
2018-10-01T11:50:45.611Z,2.90
2018-10-01T11:53:14.095Z,3.07
2018-10-01T11:55:42.616Z,3.20
2018-10-01T11:58:11.102Z,3.20
2018-10-01T12:00:39.736Z,2.90
2018-10-01T12:03:08.312Z,3.50
2018-10-01T12:05:36.757Z,2.70
2018-10-01T12:08:05.241Z,2.60
2018-10-01T12:10:33.830Z,3.17
2018-10-01T12:13:02.287Z,2.80
2018-10-01T12:15:30.865Z,3.20
2018-10-01T12:17:59.296Z,3.10
2018-10-01T12:20:27.801Z,3.20
2018-10-01T12:22:56.292Z,3.00
2018-10-01T12:25:24.793Z,2.93
2018-10-01T12:27:53.313Z,3.20
2018-10-01T12:30:21.902Z,3.20
2018-10-01T12:32:50.390Z,3.47
2018-10-01T12:35:18.923Z,3.40
2018-10-01T12:37:47.467Z,3.00
2018-10-01T12:40:15.965Z,2.97
2018-10-01T12:42:44.509Z,3.33
2018-10-01T12:45:13.038Z,3.17
2018-10-01T12:47:41.493Z,2.90
2018-10-01T12:50:09.964Z,3.20
2018-10-01T12:52:38.456Z,2.97
2018-10-01T12:55:06.970Z,3.10
2018-10-01T12:57:35.526Z,3.33
2018-10-01T13:00:04.071Z,2.93
2018-10-01T13:02:32.556Z,2.90
2018-10-01T13:05:01.101Z,3.30
2018-10-01T13:07:29.585Z,3.03
2018-10-01T13:09:58.076Z,2.97
2018-10-01T13:12:26.688Z,3.23
2018-10-01T13:14:55.151Z,3.27
2018-10-01T13:17:23.651Z,3.03
2018-10-01T13:19:52.206Z,3.20
2018-10-01T13:22:20.755Z,3.07
2018-10-01T13:24:49.347Z,3.30
2018-10-01T13:27:17.759Z,3.33
2018-10-01T13:29:46.254Z,3.20
2018-10-01T13:32:14.805Z,3.20
2018-10-01T13:34:43.300Z,3.33
2018-10-01T13:37:11.793Z,3.20
2018-10-01T13:39:40.310Z,3.10
2018-10-01T13:42:08.820Z,3.00
2018-10-01T13:44:37.492Z,3.10
2018-10-01T13:47:05.836Z,3.40
2018-10-01T13:49:34.351Z,3.27
2018-10-01T13:52:02.911Z,3.10
2018-10-01T13:54:31.472Z,3.00
2018-10-01T13:56:59.923Z,2.80
2018-10-01T13:59:28.402Z,2.90
2018-10-01T14:01:56.932Z,3.10
2018-10-01T14:04:25.376Z,3.00
2018-10-01T14:06:53.880Z,3.30
2018-10-01T14:09:22.355Z,2.90
2018-10-01T14:11:50.854Z,3.00
2018-10-01T14:14:19.356Z,3.07
2018-10-01T14:16:47.894Z,3.27
2018-10-01T14:19:16.431Z,3.10
2018-10-01T14:21:44.919Z,3.43
2018-10-01T14:24:13.436Z,3.20
2018-10-01T14:26:41.953Z,3.17
2018-10-01T14:29:10.469Z,2.80
2018-10-01T14:31:38.983Z,3.00
2018-10-01T14:34:07.496Z,2.80
2018-10-01T14:36:36.014Z,3.10
2018-10-01T14:39:05.636Z,2.87
2018-10-01T14:41:34.133Z,2.80
2018-10-01T14:44:02.664Z,2.80
2018-10-01T14:46:31.143Z,3.07
2018-10-01T14:48:59.636Z,3.33
2018-10-01T14:51:28.116Z,2.77
2018-10-01T14:53:56.595Z,2.80
2018-10-01T14:56:25.099Z,2.90
2018-10-01T14:58:53.615Z,3.03
2018-10-01T15:01:22.128Z,3.03
2018-10-01T15:03:50.674Z,2.90
2018-10-01T15:06:19.205Z,2.70
2018-10-01T15:08:47.671Z,2.90
2018-10-01T15:11:16.166Z,3.17
2018-10-01T15:13:44.673Z,2.93
2018-10-01T15:16:13.203Z,2.77
2018-10-01T15:18:41.667Z,2.83
2018-10-01T15:21:10.151Z,2.83
2018-10-01T15:23:38.648Z,3.00
2018-10-01T15:26:07.210Z,3.00
2018-10-01T15:28:35.793Z,2.47
2018-10-01T15:31:04.320Z,2.90
2018-10-01T15:33:32.831Z,3.00
2018-10-01T15:36:01.339Z,2.90
2018-10-01T15:38:29.852Z,2.50
2018-10-01T15:40:58.387Z,2.67
2018-10-01T15:43:26.867Z,2.57
2018-10-01T15:45:55.366Z,2.60
2018-10-01T15:48:23.853Z,2.60
2018-10-01T15:50:52.354Z,2.90
2018-10-01T15:53:20.830Z,2.83
2018-10-01T15:55:49.353Z,2.83
2018-10-01T15:58:17.891Z,2.50
2018-10-01T16:00:46.437Z,2.90
2018-10-01T16:03:14.968Z,2.97
2018-10-01T16:05:43.421Z,2.97
2018-10-01T16:08:11.916Z,2.60
2018-10-01T16:10:40.401Z,2.70
2018-10-01T16:13:08.879Z,2.70
2018-10-01T16:15:37.381Z,2.70
2018-10-01T16:18:05.920Z,2.97
2018-10-01T16:20:34.382Z,2.60
2018-10-01T16:25:36.732Z,2.47
2018-10-01T16:28:05.179Z,2.60
2018-10-01T16:30:33.766Z,2.37
2018-10-01T16:33:02.309Z,2.70
2018-10-01T16:35:30.796Z,2.63
2018-10-01T16:37:59.271Z,2.60
2018-10-01T16:40:27.756Z,2.70
2018-10-01T16:45:30.137Z,2.50
2018-10-01T16:47:58.622Z,2.53
2018-10-01T16:50:27.125Z,2.70
2018-10-01T16:52:55.621Z,2.53
2018-10-01T16:55:24.100Z,2.53
2018-10-01T16:57:52.595Z,2.60
2018-10-01T17:00:21.129Z,2.70
2018-10-01T17:02:49.613Z,2.47
2018-10-01T17:05:18.282Z,2.50
2018-10-01T17:07:46.771Z,2.80
2018-10-01T17:10:15.263Z,2.60
2018-10-01T17:12:43.759Z,2.63
2018-10-01T17:15:12.290Z,2.60
2018-10-01T17:17:40.805Z,2.30
2018-10-01T17:20:09.272Z,2.40
2018-10-01T17:22:37.770Z,2.40
2018-10-01T17:25:06.374Z,2.37
2018-10-01T17:27:34.858Z,2.90
2018-10-01T17:30:03.464Z,2.50
2018-10-01T17:32:31.954Z,2.40
2018-10-01T17:35:00.492Z,2.37
2018-10-01T17:37:28.992Z,2.87
2018-10-01T17:39:57.471Z,2.60
2018-10-01T17:42:25.950Z,2.57
2018-10-01T17:44:54.427Z,2.30
2018-10-01T17:47:22.912Z,2.40
2018-10-01T17:49:51.385Z,2.50
2018-10-01T17:52:19.890Z,2.50
2018-10-01T17:54:48.368Z,2.60
2018-10-01T17:57:17.370Z,2.30
2018-10-01T17:59:46.375Z,2.60
2018-10-01T18:02:14.815Z,2.57
2018-10-01T18:04:43.284Z,2.30
2018-10-01T18:07:11.795Z,2.70
2018-10-01T18:09:40.291Z,2.30
2018-10-01T18:12:08.788Z,2.20
2018-10-01T18:14:37.298Z,2.00
2018-10-01T18:17:05.790Z,2.60
2018-10-01T18:19:34.274Z,2.50
2018-10-01T18:22:02.786Z,2.50
2018-10-01T18:24:31.284Z,2.40
2018-10-01T18:26:59.760Z,2.40
2018-10-01T18:29:28.318Z,2.63
2018-10-01T18:31:56.934Z,2.30
2018-10-01T18:34:25.373Z,2.60
2018-10-01T18:36:53.923Z,2.50
2018-10-01T18:39:25.043Z,2.27
2018-10-01T18:41:53.542Z,2.40
2018-10-01T18:44:21.974Z,2.27
2018-10-01T18:46:50.531Z,2.10
2018-10-01T18:49:19.008Z,2.50
2018-10-01T18:51:47.494Z,2.50
2018-10-01T18:54:16.080Z,2.47
2018-10-01T18:56:44.589Z,2.40
2018-10-01T18:59:13.062Z,2.70
2018-10-01T19:01:41.641Z,2.27
2018-10-01T19:04:10.103Z,2.50
2018-10-01T19:06:38.589Z,2.50
2018-10-01T19:09:09.370Z,2.77
2018-10-01T19:11:38.117Z,3.23
2018-10-01T19:14:06.653Z,2.40
2018-10-01T19:16:35.123Z,2.30
2018-10-01T19:19:03.590Z,2.60
2018-10-01T19:21:32.119Z,2.60
2018-10-01T19:24:00.785Z,2.50
2018-10-01T19:26:29.389Z,2.70
2018-10-01T19:28:57.982Z,2.20
2018-10-01T19:31:26.491Z,2.40
2018-10-01T19:33:55.235Z,2.67
2018-10-01T19:36:23.716Z,2.47
2018-10-01T19:38:52.248Z,2.50
2018-10-01T19:41:20.694Z,2.57
2018-10-01T19:43:49.178Z,2.10
2018-10-01T19:46:17.707Z,2.57
2018-10-01T19:48:46.190Z,2.53
2018-10-01T19:51:14.728Z,2.33
2018-10-01T19:53:43.207Z,2.33
2018-10-01T19:56:11.674Z,2.50
2018-10-01T19:58:40.234Z,2.60
2018-10-01T20:01:08.733Z,2.40
2018-10-01T20:03:37.263Z,2.50
2018-10-01T20:06:05.744Z,2.50
2018-10-01T20:08:34.207Z,2.70
2018-10-01T20:11:02.773Z,2.60
2018-10-01T20:13:31.272Z,2.50
2018-10-01T20:15:59.757Z,2.30
2018-10-01T20:18:28.244Z,2.43
2018-10-01T20:20:56.769Z,2.30
2018-10-01T20:23:25.207Z,2.37
2018-10-01T20:25:53.687Z,2.50
2018-10-01T20:28:22.364Z,2.90
2018-10-01T20:30:50.686Z,2.40
2018-10-01T20:33:19.228Z,2.57
2018-10-01T20:35:47.826Z,2.60
2018-10-01T20:38:16.248Z,2.40
2018-10-01T20:40:44.742Z,2.40
2018-10-01T20:43:13.209Z,2.57
2018-10-01T20:45:41.692Z,2.50
2018-10-01T20:48:10.211Z,2.50
2018-10-01T20:50:38.700Z,2.27
2018-10-01T20:53:07.324Z,2.47
2018-10-01T20:55:35.766Z,2.40
2018-10-01T20:58:04.248Z,2.43
2018-10-01T21:00:32.731Z,2.20
2018-10-01T21:03:01.200Z,2.23
2018-10-01T21:05:29.668Z,2.20
2018-10-01T21:07:58.147Z,2.20
2018-10-01T21:10:26.620Z,2.27
2018-10-01T21:12:55.146Z,2.27
2018-10-01T21:15:23.626Z,2.50
2018-10-01T21:17:52.100Z,2.20
2018-10-01T21:20:20.566Z,2.40
2018-10-01T21:22:49.044Z,2.40
2018-10-01T21:25:17.524Z,2.20
2018-10-01T21:27:46.016Z,2.27
2018-10-01T21:30:14.488Z,2.37
2018-10-01T21:32:42.959Z,2.30
2018-10-01T21:35:11.413Z,2.30
2018-10-01T21:37:39.883Z,2.20
2018-10-01T21:40:16.020Z,2.40
2018-10-01T21:42:44.510Z,2.70
2018-10-01T21:45:14.281Z,2.30
2018-10-01T21:47:42.772Z,2.50
2018-10-01T21:50:11.241Z,2.30
2018-10-01T21:52:39.750Z,2.20
2018-10-01T21:55:08.223Z,2.07
2018-10-01T21:57:36.715Z,2.40
2018-10-01T22:00:07.882Z,2.27
2018-10-01T22:02:36.407Z,2.13
2018-10-01T22:05:05.514Z,2.40
2018-10-01T22:07:34.274Z,2.07
2018-10-01T22:10:02.796Z,2.30
2018-10-01T22:12:31.266Z,2.30
2018-10-01T22:14:59.729Z,2.50
2018-10-01T22:17:28.210Z,2.40
2018-10-01T22:19:56.688Z,2.60
2018-10-01T22:22:25.165Z,2.40
2018-10-01T22:24:53.647Z,2.27
2018-10-01T22:27:22.159Z,2.27
2018-10-01T22:29:50.651Z,2.23
2018-10-01T22:32:19.110Z,2.23
2018-10-01T22:34:47.619Z,2.40
2018-10-01T22:37:16.096Z,2.10
2018-10-01T22:39:44.569Z,2.30
2018-10-01T22:42:13.035Z,2.50
2018-10-01T22:44:41.508Z,2.50
2018-10-01T22:47:10.021Z,2.10
2018-10-01T22:49:38.493Z,2.40
2018-10-01T22:52:06.978Z,2.33
2018-10-01T22:54:35.447Z,2.23
2018-10-01T22:57:03.926Z,2.37
2018-10-01T22:59:32.404Z,2.40
2018-10-01T23:02:00.875Z,2.57
2018-10-01T23:04:29.343Z,2.07
2018-10-01T23:06:57.815Z,2.07
2018-10-01T23:09:26.306Z,2.43
2018-10-01T23:11:54.798Z,2.10
2018-10-01T23:14:23.276Z,2.47
2018-10-01T23:16:51.802Z,2.20
2018-10-01T23:19:20.331Z,2.20
2018-10-01T23:21:48.794Z,2.20
2018-10-01T23:24:17.267Z,2.10
2018-10-01T23:26:45.771Z,1.80
2018-10-01T23:29:14.246Z,2.30
2018-10-01T23:31:42.741Z,2.10
2018-10-01T23:34:11.219Z,1.97
2018-10-01T23:36:39.696Z,2.10
2018-10-01T23:39:08.160Z,2.20
2018-10-01T23:41:36.639Z,2.17
2018-10-01T23:44:05.143Z,2.20
2018-10-01T23:46:33.611Z,2.13
2018-10-01T23:49:02.079Z,2.07
2018-10-01T23:51:30.543Z,2.10
2018-10-01T23:53:59.026Z,2.20
2018-10-01T23:56:27.491Z,2.00
2018-10-01T23:58:56.110Z,2.10
